Time;durP1;ratioP1;P1;durP2;ratioP2;P2;SDS_P1;SDS_P2;PMS_P1;PMS_P2;Temp;Humidity;BMP_temperature;BMP_pressure;BME280_temperature;BME280_humidity;BME280_pressure;Samples;Min_cycle;Max_cycle;Signal;HPM_P1;HPM_P2
2021/09/25 00:00:27;;;;;;;2.58;0.93;;;;;23.60;101385.00;;;;5063514;28;20207;-82
2021/09/25 00:02:55;;;;;;;2.90;0.77;;;;;23.60;101381.00;;;;5051209;28;20202;-82
2021/09/25 00:05:25;;;;;;;5.70;1.20;;;;;23.60;101374.00;;;;5054194;28;20188;-82
2021/09/25 00:07:52;;;;;;;3.40;1.48;;;;;23.60;101382.00;;;;5069900;28;20589;-82
2021/09/25 00:10:19;;;;;;;2.15;1.23;;;;;23.60;101379.00;;;;5063372;28;20200;-82
2021/09/25 00:12:49;;;;;;;1.60;0.90;;;;;23.60;101378.00;;;;5052280;28;20242;-81
2021/09/25 00:15:17;;;;;;;1.30;0.95;;;;;23.60;101372.00;;;;5059645;28;20567;-81
2021/09/25 00:17:45;;;;;;;1.00;0.88;;;;;23.60;101380.00;;;;5057280;28;20199;-82
2021/09/25 00:20:14;;;;;;;1.30;0.88;;;;;23.60;101375.00;;;;5057357;28;20229;-81
2021/09/25 00:22:42;;;;;;;2.28;1.40;;;;;23.60;101375.00;;;;5054920;28;20210;-81
2021/09/25 00:25:10;;;;;;;1.38;1.00;;;;;23.50;101382.00;;;;5053345;28;20187;-82
2021/09/25 00:27:38;;;;;;;3.00;1.10;;;;;23.50;101376.00;;;;5057579;28;20207;-82
2021/09/25 00:30:10;;;;;;;2.25;0.90;;;;;23.50;101381.00;;;;5070483;28;20210;-81
2021/09/25 00:32:37;;;;;;;2.08;1.33;;;;;23.50;101379.00;;;;5068200;28;20715;-82
2021/09/25 00:35:05;;;;;;;2.50;1.50;;;;;23.50;101375.00;;;;5052935;28;20192;-81
2021/09/25 00:37:32;;;;;;;2.65;1.20;;;;;23.50;101381.00;;;;5050531;28;20219;-82
2021/09/25 00:39:59;;;;;;;2.90;1.55;;;;;23.50;101377.00;;;;5061607;28;20223;-82
2021/09/25 00:42:27;;;;;;;4.78;1.80;;;;;23.50;101378.00;;;;5050223;28;20326;-81
2021/09/25 00:44:54;;;;;;;1.60;0.90;;;;;23.50;101379.00;;;;5056163;28;20199;-82
2021/09/25 00:47:23;;;;;;;1.55;1.25;;;;;23.50;101375.00;;;;5049822;28;20206;-81
2021/09/25 00:49:50;;;;;;;2.78;1.27;;;;;23.50;101381.00;;;;5054552;28;20212;-81
2021/09/25 00:52:17;;;;;;;2.05;1.40;;;;;23.50;101374.00;;;;5050488;28;20215;-81
2021/09/25 00:54:45;;;;;;;1.98;1.20;;;;;23.50;101374.00;;;;5050482;28;20560;-83
2021/09/25 00:57:12;;;;;;;1.75;0.90;;;;;23.50;101379.00;;;;5050381;28;20215;-81
2021/09/25 00:59:40;;;;;;;1.85;1.55;;;;;23.40;101378.00;;;;5050581;28;20211;-82
2021/09/25 01:02:07;;;;;;;2.33;1.50;;;;;23.40;101379.00;;;;5065312;28;20909;-81
2021/09/25 01:04:36;;;;;;;3.10;1.60;;;;;23.40;101380.00;;;;5050095;28;20199;-79
2021/09/25 01:07:04;;;;;;;2.75;1.60;;;;;23.40;101386.00;;;;5050515;28;20199;-79
2021/09/25 01:09:31;;;;;;;2.70;1.50;;;;;23.40;101382.00;;;;5051070;28;20596;-79
2021/09/25 01:11:59;;;;;;;3.30;1.40;;;;;23.40;101375.00;;;;5069756;28;20230;-79
2021/09/25 01:14:30;;;;;;;2.50;0.93;;;;;23.40;101378.00;;;;5067058;28;21083;-79
2021/09/25 01:17:04;;;;;;;3.47;1.55;;;;;23.30;101389.00;;;;5061199;28;20200;-79
2021/09/25 01:19:32;;;;;;;1.27;1.15;;;;;23.40;101382.00;;;;5054136;28;20204;-79
2021/09/25 01:22:00;;;;;;;1.92;1.35;;;;;23.40;101385.00;;;;5051628;28;20202;-80
2021/09/25 01:24:28;;;;;;;2.03;1.30;;;;;23.40;101385.00;;;;5054676;28;20919;-80
2021/09/25 01:26:55;;;;;;;2.80;1.42;;;;;23.40;101380.00;;;;5057927;28;20207;-80
2021/09/25 01:29:22;;;;;;;6.63;1.40;;;;;23.40;101389.00;;;;5059265;28;20207;-80
2021/09/25 01:31:50;;;;;;;3.58;1.42;;;;;23.30;101385.00;;;;5063518;28;20238;-80
2021/09/25 01:34:17;;;;;;;1.92;1.10;;;;;23.30;101380.00;;;;5050432;28;20199;-80
2021/09/25 01:36:45;;;;;;;2.05;1.23;;;;;23.30;101386.00;;;;5048488;28;20211;-80
2021/09/25 01:39:13;;;;;;;2.55;1.40;;;;;23.30;101392.00;;;;5048635;28;20981;-80
2021/09/25 01:41:41;;;;;;;1.65;1.08;;;;;23.30;101390.00;;;;5047751;28;20227;-79
2021/09/25 01:44:08;;;;;;;1.90;1.05;;;;;23.30;101383.00;;;;5048899;28;20635;-80
2021/09/25 01:46:35;;;;;;;3.70;1.23;;;;;23.30;101388.00;;;;5049040;28;20740;-81
2021/09/25 01:49:03;;;;;;;1.38;1.02;;;;;23.20;101380.00;;;;5049113;28;20228;-80
2021/09/25 01:51:31;;;;;;;1.88;1.23;;;;;23.20;101374.00;;;;5048281;28;20210;-81
2021/09/25 01:53:58;;;;;;;1.67;1.13;;;;;23.20;101373.00;;;;5048646;28;20204;-80
2021/09/25 01:56:27;;;;;;;2.00;1.40;;;;;23.20;101371.00;;;;5059690;28;20669;-80
2021/09/25 01:58:54;;;;;;;4.50;1.20;;;;;23.20;101369.00;;;;5050250;28;20206;-81
2021/09/25 02:01:21;;;;;;;3.13;1.45;;;;;23.20;101372.00;;;;5052175;28;20456;-80
2021/09/25 02:03:48;;;;;;;6.00;1.50;;;;;23.20;101370.00;;;;5066796;28;20195;-81
2021/09/25 02:06:17;;;;;;;1.85;1.60;;;;;23.20;101372.00;;;;5067721;28;20192;-80
2021/09/25 02:08:45;;;;;;;1.70;1.23;;;;;23.20;101371.00;;;;5067236;28;20203;-80
2021/09/25 02:11:13;;;;;;;6.80;1.40;;;;;23.20;101376.00;;;;5048647;28;20213;-80
2021/09/25 02:13:42;;;;;;;2.72;1.30;;;;;23.10;101378.00;;;;5053330;28;20233;-80
2021/09/25 02:16:10;;;;;;;4.40;1.60;;;;;23.20;101370.00;;;;5057375;28;21248;-80
2021/09/25 02:18:37;;;;;;;4.47;1.73;;;;;23.10;101382.00;;;;5048569;28;20199;-80
2021/09/25 02:21:06;;;;;;;3.58;1.55;;;;;23.10;101380.00;;;;5048396;28;20204;-80
2021/09/25 02:23:34;;;;;;;2.80;1.27;;;;;23.10;101380.00;;;;5052911;28;20203;-80
2021/09/25 02:26:02;;;;;;;3.60;2.05;;;;;23.10;101366.00;;;;5053466;28;20198;-80
2021/09/25 02:28:30;;;;;;;5.55;1.27;;;;;23.10;101377.00;;;;5054412;28;20673;-80
2021/09/25 02:31:00;;;;;;;4.03;1.92;;;;;23.10;101378.00;;;;5053892;28;20206;-80
2021/09/25 02:33:27;;;;;;;3.67;1.92;;;;;23.10;101371.00;;;;5053124;28;20218;-80
2021/09/25 02:35:57;;;;;;;4.00;2.25;;;;;23.00;101364.00;;;;5048694;28;20199;-80
2021/09/25 02:38:24;;;;;;;2.78;1.70;;;;;23.00;101361.00;;;;5047456;28;20203;-81
2021/09/25 02:40:51;;;;;;;2.33;1.48;;;;;23.00;101366.00;;;;5047522;28;20238;-80
2021/09/25 02:43:18;;;;;;;4.47;1.98;;;;;23.00;101361.00;;;;5058369;28;20196;-80
2021/09/25 02:45:46;;;;;;;2.00;1.80;;;;;23.00;101370.00;;;;5060072;28;20210;-80
2021/09/25 02:48:15;;;;;;;3.45;2.15;;;;;23.00;101369.00;;;;5062982;28;20209;-80
2021/09/25 02:50:42;;;;;;;3.58;1.80;;;;;23.00;101366.00;;;;5055869;28;20231;-80
2021/09/25 02:53:09;;;;;;;3.38;1.70;;;;;23.00;101368.00;;;;5050581;28;20235;-80
2021/09/25 02:55:37;;;;;;;2.97;2.28;;;;;22.90;101372.00;;;;5058620;28;20190;-80
2021/09/25 02:58:04;;;;;;;2.63;2.17;;;;;22.90;101368.00;;;;5048620;28;20585;-81
2021/09/25 03:00:31;;;;;;;7.18;3.00;;;;;22.90;101375.00;;;;5054287;28;20206;-80
2021/09/25 03:02:59;;;;;;;3.85;2.28;;;;;22.90;101365.00;;;;5060362;28;20213;-80
2021/09/25 03:05:27;;;;;;;2.83;1.98;;;;;22.80;101374.00;;;;5064308;28;20203;-80
2021/09/25 03:07:55;;;;;;;6.18;2.50;;;;;22.80;101367.00;;;;5055718;28;20199;-80
2021/09/25 03:10:22;;;;;;;5.28;2.55;;;;;22.80;101369.00;;;;5048984;28;20204;-80
2021/09/25 03:12:49;;;;;;;6.53;2.70;;;;;22.80;101364.00;;;;5048119;28;20223;-80
2021/09/25 03:15:17;;;;;;;4.07;2.28;;;;;22.80;101368.00;;;;5057008;28;20202;-80
2021/09/25 03:17:44;;;;;;;2.83;2.53;;;;;22.80;101371.00;;;;5048897;28;20207;-80
2021/09/25 03:20:13;;;;;;;6.28;2.80;;;;;22.80;101375.00;;;;5049993;28;20192;-81
2021/09/25 03:22:42;;;;;;;4.30;2.17;;;;;22.80;101371.00;;;;5051998;28;20199;-80
2021/09/25 03:25:10;;;;;;;6.57;2.40;;;;;22.80;101380.00;;;;5056499;28;20200;-81
2021/09/25 03:27:38;;;;;;;3.10;2.22;;;;;22.80;101383.00;;;;5051530;28;20244;-80
2021/09/25 03:30:07;;;;;;;4.28;2.95;;;;;22.80;101380.00;;;;5057714;28;20576;-80
2021/09/25 03:32:34;;;;;;;4.28;2.50;;;;;22.80;101381.00;;;;5051571;28;20608;-80
2021/09/25 03:35:02;;;;;;;2.85;2.38;;;;;22.80;101379.00;;;;5051860;28;20208;-81
2021/09/25 03:37:29;;;;;;;2.88;2.33;;;;;22.70;101379.00;;;;5051759;28;20202;-80
2021/09/25 03:39:58;;;;;;;2.72;2.42;;;;;22.70;101374.00;;;;5051246;28;21010;-80
2021/09/25 03:42:25;;;;;;;5.30;2.88;;;;;22.70;101370.00;;;;5051729;28;20811;-80
2021/09/25 03:44:52;;;;;;;4.82;2.50;;;;;22.70;101377.00;;;;5051706;28;20192;-80
2021/09/25 03:47:19;;;;;;;3.80;2.55;;;;;22.70;101374.00;;;;5052083;28;20191;-81
2021/09/25 03:49:47;;;;;;;4.90;2.75;;;;;22.70;101372.00;;;;5060582;28;20208;-80
2021/09/25 03:52:14;;;;;;;6.15;2.65;;;;;22.60;101373.00;;;;5069607;28;20230;-80
2021/09/25 03:54:41;;;;;;;4.60;3.05;;;;;22.60;101369.00;;;;5062473;28;20193;-80
2021/09/25 03:57:10;;;;;;;4.47;2.83;;;;;22.60;101364.00;;;;5051247;28;20199;-80
2021/09/25 03:59:37;;;;;;;6.55;3.33;;;;;22.60;101366.00;;;;5057482;28;20198;-80
2021/09/25 04:02:05;;;;;;;5.88;3.00;;;;;22.60;101372.00;;;;5055364;28;20674;-81
2021/09/25 04:04:32;;;;;;;6.32;3.47;;;;;22.60;101365.00;;;;5051467;28;20389;-80
2021/09/25 04:06:59;;;;;;;8.30;3.58;;;;;22.60;101366.00;;;;5051625;28;20195;-80
2021/09/25 04:09:26;;;;;;;7.38;3.28;;;;;22.60;101360.00;;;;5054792;28;20619;-81
2021/09/25 04:11:54;;;;;;;6.65;3.03;;;;;22.60;101362.00;;;;5051257;28;20200;-80
2021/09/25 04:14:23;;;;;;;5.07;3.45;;;;;22.50;101369.00;;;;5051159;28;20215;-80
2021/09/25 04:16:50;;;;;;;5.63;3.83;;;;;22.50;101371.00;;;;5068108;28;20203;-80
2021/09/25 04:19:18;;;;;;;6.03;4.00;;;;;22.50;101365.00;;;;5063190;28;20194;-80
2021/09/25 04:21:45;;;;;;;5.53;4.05;;;;;22.50;101375.00;;;;5051521;28;20200;-80
2021/09/25 04:24:12;;;;;;;5.05;3.65;;;;;22.50;101376.00;;;;5059426;28;20202;-80
2021/09/25 04:26:40;;;;;;;7.60;4.05;;;;;22.50;101377.00;;;;5053184;28;20195;-80
2021/09/25 04:29:07;;;;;;;6.65;4.22;;;;;22.50;101377.00;;;;5055114;28;20207;-80
2021/09/25 04:31:36;;;;;;;5.65;3.33;;;;;22.50;101372.00;;;;5058673;28;20203;-80
2021/09/25 04:34:03;;;;;;;4.80;3.28;;;;;22.50;101377.00;;;;5058678;28;20407;-80
2021/09/25 04:36:31;;;;;;;6.10;3.78;;;;;22.50;101375.00;;;;5051407;28;20580;-80
2021/09/25 04:38:59;;;;;;;6.40;4.20;;;;;22.50;101379.00;;;;5050393;28;20251;-81
2021/09/25 04:41:26;;;;;;;7.78;4.30;;;;;22.50;101375.00;;;;5050635;28;20227;-80
2021/09/25 04:43:53;;;;;;;7.97;4.13;;;;;22.50;101364.00;;;;5054452;28;20207;-80
2021/09/25 04:46:20;;;;;;;6.32;3.90;;;;;22.50;101363.00;;;;5054404;28;20203;-81
2021/09/25 04:48:49;;;;;;;7.03;4.63;;;;;22.50;101365.00;;;;5050462;28;20562;-80
2021/09/25 04:51:17;;;;;;;7.38;4.55;;;;;22.50;101364.00;;;;5050188;28;20203;-80
2021/09/25 04:53:45;;;;;;;5.03;4.15;;;;;22.50;101356.00;;;;5050011;28;20234;-80
2021/09/25 04:56:12;;;;;;;6.95;4.10;;;;;22.50;101351.00;;;;5062434;28;20199;-80
2021/09/25 04:58:41;;;;;;;6.32;4.43;;;;;22.50;101358.00;;;;5052152;28;20452;-79
2021/09/25 05:01:09;;;;;;;5.88;4.07;;;;;22.50;101361.00;;;;5057908;28;20206;-79
2021/09/25 05:03:36;;;;;;;6.15;3.95;;;;;22.50;101357.00;;;;5063221;28;20694;-79
2021/09/25 05:06:05;;;;;;;7.05;3.95;;;;;22.50;101351.00;;;;5055363;28;20196;-79
2021/09/25 05:08:33;;;;;;;5.78;4.28;;;;;22.50;101351.00;;;;5060596;28;20199;-78
2021/09/25 05:11:00;;;;;;;5.22;3.78;;;;;22.50;101359.00;;;;5058047;28;20373;-79
2021/09/25 05:13:27;;;;;;;5.13;3.90;;;;;22.50;101359.00;;;;5053338;28;20215;-80
2021/09/25 05:15:55;;;;;;;7.32;4.57;;;;;22.50;101367.00;;;;5056799;28;20209;-80
2021/09/25 05:18:22;;;;;;;7.22;4.55;;;;;22.50;101363.00;;;;5054407;28;20203;-79
2021/09/25 05:20:52;;;;;;;6.68;3.92;;;;;22.50;101375.00;;;;5049788;28;20211;-79
2021/09/25 05:23:21;;;;;;;7.72;4.45;;;;;22.50;101379.00;;;;5066876;28;20191;-79
2021/09/25 05:25:49;;;;;;;6.85;3.90;;;;;22.50;101379.00;;;;5061111;28;20208;-79
2021/09/25 05:28:16;;;;;;;6.75;4.15;;;;;22.50;101373.00;;;;5060377;28;20199;-80
2021/09/25 05:30:44;;;;;;;6.40;4.40;;;;;22.50;101369.00;;;;5054244;28;20205;-80
2021/09/25 05:33:11;;;;;;;7.45;4.72;;;;;22.50;101378.00;;;;5056800;28;20219;-81
2021/09/25 05:35:39;;;;;;;5.80;4.20;;;;;22.50;101375.00;;;;5056369;28;20195;-80
2021/09/25 05:38:06;;;;;;;5.78;4.15;;;;;22.50;101381.00;;;;5056296;28;20206;-80
2021/09/25 05:40:34;;;;;;;7.88;4.57;;;;;22.50;101383.00;;;;5055303;28;20231;-81
2021/09/25 05:43:02;;;;;;;5.30;3.70;;;;;22.50;101382.00;;;;5056775;28;20200;-81
2021/09/25 05:45:29;;;;;;;9.75;4.80;;;;;22.50;101386.00;;;;5049634;28;20203;-81
2021/09/25 05:47:56;;;;;;;5.75;3.67;;;;;22.50;101386.00;;;;5051312;28;20214;-81
2021/09/25 05:50:24;;;;;;;7.53;4.70;;;;;22.50;101381.00;;;;5059369;28;20191;-81
2021/09/25 05:52:51;;;;;;;6.78;4.38;;;;;22.50;101383.00;;;;5058591;28;20612;-80
2021/09/25 05:55:20;;;;;;;4.82;3.83;;;;;22.50;101388.00;;;;5056532;28;20200;-80
2021/09/25 05:57:49;;;;;;;6.55;4.72;;;;;22.50;101380.00;;;;5049142;28;20210;-80
2021/09/25 06:00:16;;;;;;;6.53;4.35;;;;;22.50;101381.00;;;;5056270;28;20203;-80
2021/09/25 06:02:44;;;;;;;8.40;4.50;;;;;22.50;101380.00;;;;5055477;28;20218;-79
2021/09/25 06:05:11;;;;;;;7.72;4.18;;;;;22.50;101376.00;;;;5050781;28;20589;-80
2021/09/25 06:07:39;;;;;;;6.55;4.80;;;;;22.50;101381.00;;;;5057616;28;20215;-80
2021/09/25 06:10:08;;;;;;;6.55;4.35;;;;;22.50;101380.00;;;;5049502;28;20207;-80
2021/09/25 06:12:35;;;;;;;6.80;4.57;;;;;22.50;101388.00;;;;5051023;28;20210;-80
2021/09/25 06:15:05;;;;;;;6.15;3.97;;;;;22.50;101384.00;;;;5051118;28;20689;-80
2021/09/25 06:17:32;;;;;;;7.25;4.90;;;;;22.60;101390.00;;;;5057411;28;20242;-80
2021/09/25 06:19:59;;;;;;;5.40;3.92;;;;;22.60;101387.00;;;;5054348;28;20191;-80
2021/09/25 06:22:27;;;;;;;9.13;4.45;;;;;22.60;101389.00;;;;5055551;28;20200;-80
2021/09/25 06:24:54;;;;;;;6.70;4.60;;;;;22.60;101390.00;;;;5055281;28;20196;-80
2021/09/25 06:27:22;;;;;;;9.05;4.68;;;;;22.60;101386.00;;;;5051326;28;20199;-80
2021/09/25 06:29:50;;;;;;;7.25;4.28;;;;;22.60;101383.00;;;;5049158;28;20202;-79
2021/09/25 06:32:18;;;;;;;5.60;4.40;;;;;22.60;101381.00;;;;5054101;28;20199;-80
2021/09/25 06:34:46;;;;;;;6.72;4.90;;;;;22.60;101388.00;;;;5050365;28;20704;-80
2021/09/25 06:37:13;;;;;;;7.93;4.57;;;;;22.60;101385.00;;;;5050962;28;20206;-79
2021/09/25 06:39:41;;;;;;;6.28;5.13;;;;;22.70;101384.00;;;;5048124;28;20230;-80
2021/09/25 06:42:08;;;;;;;6.45;4.90;;;;;22.70;101395.00;;;;5049793;28;20226;-80
2021/09/25 06:44:35;;;;;;;9.57;5.45;;;;;22.70;101395.00;;;;5051359;28;20231;-80
2021/09/25 06:47:03;;;;;;;6.45;4.93;;;;;22.70;101389.00;;;;5052166;28;20654;-80
2021/09/25 06:49:31;;;;;;;7.50;4.90;;;;;22.70;101395.00;;;;5051053;28;20214;-79
2021/09/25 06:51:59;;;;;;;8.77;5.03;;;;;22.70;101398.00;;;;5050806;28;20214;-81
2021/09/25 06:54:26;;;;;;;7.45;5.25;;;;;22.70;101392.00;;;;5048287;28;20231;-80
2021/09/25 06:56:53;;;;;;;8.38;4.97;;;;;22.70;101388.00;;;;5051143;28;20196;-80
2021/09/25 06:59:21;;;;;;;6.75;4.63;;;;;22.70;101391.00;;;;5050755;28;20200;-82
2021/09/25 07:01:48;;;;;;;6.32;4.38;;;;;22.70;101392.00;;;;5050549;28;20206;-78
2021/09/25 07:04:15;;;;;;;6.45;4.70;;;;;22.80;101391.00;;;;5050793;28;20203;-79
2021/09/25 07:06:44;;;;;;;5.97;4.25;;;;;22.80;101399.00;;;;5053169;28;20199;-81
2021/09/25 07:09:11;;;;;;;7.85;4.68;;;;;22.80;101393.00;;;;5051790;28;20195;-80
2021/09/25 07:11:38;;;;;;;7.57;4.63;;;;;22.80;101396.00;;;;5048570;28;20792;-80
2021/09/25 07:14:05;;;;;;;5.53;4.10;;;;;22.80;101397.00;;;;5048643;28;20211;-79
2021/09/25 07:16:33;;;;;;;7.90;4.55;;;;;22.80;101406.00;;;;5051634;28;20203;-79
2021/09/25 07:19:00;;;;;;;6.38;4.28;;;;;22.80;101401.00;;;;5049010;28;20192;-79
2021/09/25 07:21:28;;;;;;;5.60;4.55;;;;;22.90;101408.00;;;;5043294;28;20203;-79
2021/09/25 07:23:56;;;;;;;9.40;5.75;;;;;22.90;101412.00;;;;5046831;28;20223;-79
2021/09/25 07:26:24;;;;;;;6.20;4.60;;;;;22.90;101408.00;;;;5055291;28;20203;-81
2021/09/25 07:28:51;;;;;;;7.22;4.82;;;;;22.90;101411.00;;;;5058302;28;20202;-83
2021/09/25 07:31:19;;;;;;;6.60;4.40;;;;;22.90;101418.00;;;;5049646;28;20187;-84
2021/09/25 07:33:46;;;;;;;7.97;5.32;;;;;23.00;101425.00;;;;5053313;28;20697;-82
2021/09/25 07:36:13;;;;;;;7.00;5.10;;;;;23.00;101425.00;;;;5046819;28;20679;-82
2021/09/25 07:38:41;;;;;;;7.63;5.25;;;;;23.00;101423.00;;;;5047233;28;20215;-82
2021/09/25 07:41:10;;;;;;;7.35;4.80;;;;;23.00;101417.00;;;;5051303;28;20558;-85
2021/09/25 07:43:37;;;;;;;7.95;5.30;;;;;23.00;101423.00;;;;5046592;28;20215;-83
2021/09/25 07:46:04;;;;;;;6.68;5.30;;;;;23.00;101426.00;;;;5046906;28;20208;-85
2021/09/25 07:48:31;;;;;;;7.30;5.13;;;;;23.00;101426.00;;;;5047906;28;20203;-84
2021/09/25 07:50:58;;;;;;;9.27;6.10;;;;;23.00;101432.00;;;;5067421;28;20629;-84
2021/09/25 07:53:26;;;;;;;6.93;6.10;;;;;23.00;101430.00;;;;5066061;28;20674;-81
2021/09/25 07:55:53;;;;;;;15.90;6.78;;;;;23.10;101433.00;;;;5068333;28;20210;-83
2021/09/25 07:58:22;;;;;;;8.40;5.93;;;;;23.10;101440.00;;;;5067139;28;20191;-83
2021/09/25 08:00:51;;;;;;;8.40;6.05;;;;;23.10;101450.00;;;;5053050;28;20200;-83
2021/09/25 08:03:19;;;;;;;7.90;5.38;;;;;23.10;101456.00;;;;5047436;28;20227;-82
2021/09/25 08:05:46;;;;;;;9.18;6.15;;;;;23.10;101465.00;;;;5066234;28;20248;-82
2021/09/25 08:08:13;;;;;;;10.57;6.65;;;;;23.20;101463.00;;;;5054881;28;20207;-81
2021/09/25 08:10:41;;;;;;;7.18;5.05;;;;;23.20;101470.00;;;;5050276;28;20218;-80
2021/09/25 08:13:09;;;;;;;9.80;6.45;;;;;23.20;101466.00;;;;5052082;28;20196;-81
2021/09/25 08:15:39;;;;;;;7.20;5.38;;;;;23.20;101477.00;;;;5051220;28;20231;-81
2021/09/25 08:18:07;;;;;;;8.88;5.47;;;;;23.20;101472.00;;;;5050987;28;20231;-80
2021/09/25 08:20:34;;;;;;;9.82;6.07;;;;;23.30;101478.00;;;;5050588;28;20207;-81
2021/09/25 08:23:02;;;;;;;8.55;6.30;;;;;23.30;101481.00;;;;5050696;28;20196;-80
2021/09/25 08:25:29;;;;;;;6.85;5.68;;;;;23.30;101485.00;;;;5057641;28;20195;-81
2021/09/25 08:27:56;;;;;;;8.07;5.75;;;;;23.40;101478.00;;;;5054873;28;20196;-80
2021/09/25 08:30:25;;;;;;;11.38;5.80;;;;;23.40;101485.00;;;;5051334;28;20204;-80
2021/09/25 08:32:54;;;;;;;8.30;5.18;;;;;23.40;101488.00;;;;5053454;28;20386;-80
2021/09/25 08:35:22;;;;;;;9.00;6.25;;;;;23.40;101483.00;;;;5063315;28;20225;-80
2021/09/25 08:37:50;;;;;;;7.43;5.57;;;;;23.50;101493.00;;;;5065977;28;20629;-82
2021/09/25 08:40:21;;;;;;;9.55;5.93;;;;;23.50;101486.00;;;;5060872;28;20218;-83
2021/09/25 08:42:49;;;;;;;7.50;5.03;;;;;23.50;101491.00;;;;5055366;28;20585;-82
2021/09/25 08:45:17;;;;;;;6.25;5.28;;;;;23.60;101494.00;;;;5049605;28;20200;-83
2021/09/25 08:47:44;;;;;;;9.10;5.43;;;;;23.60;101489.00;;;;5050754;28;20982;-83
2021/09/25 08:50:15;;;;;;;6.57;4.55;;;;;23.50;101494.00;;;;5050797;28;20202;-83
2021/09/25 08:52:42;;;;;;;7.60;5.35;;;;;23.60;101499.00;;;;5049165;28;20203;-83
2021/09/25 08:55:11;;;;;;;7.70;5.20;;;;;23.60;101499.00;;;;5049185;28;20239;-83
2021/09/25 08:57:39;;;;;;;11.20;5.55;;;;;23.60;101498.00;;;;5050250;28;20570;-83
2021/09/25 09:00:31;;;;;;;6.80;5.43;;;;;23.50;101502.00;;;;5058338;28;20227;-83
2021/09/25 09:03:21;;;;;;;11.23;6.10;;;;;23.50;101511.00;;;;5050373;28;20215;-83
2021/09/25 09:05:53;;;;;;;7.75;5.38;;;;;23.70;101512.00;;;;5050656;28;20199;-84
2021/09/25 09:08:20;;;;;;;9.35;6.38;;;;;23.70;101526.00;;;;5054417;28;20210;-84
2021/09/25 09:10:48;;;;;;;8.32;5.50;;;;;23.70;101525.00;;;;5051257;28;20248;-82
2021/09/25 09:13:16;;;;;;;7.80;5.47;;;;;23.70;101518.00;;;;5051179;28;20552;-84
2021/09/25 09:15:44;;;;;;;9.18;6.18;;;;;23.70;101526.00;;;;5055600;28;20776;-84
2021/09/25 09:18:15;;;;;;;7.18;5.15;;;;;23.70;101521.00;;;;5053269;28;20609;-84
2021/09/25 09:21:04;;;;;;;7.68;4.88;;;;;23.70;101521.00;;;;5056064;28;20203;-84
2021/09/25 09:23:32;;;;;;;7.50;5.32;;;;;23.80;101518.00;;;;5061747;28;20192;-83
2021/09/25 09:26:00;;;;;;;7.30;5.22;;;;;23.90;101518.00;;;;5071347;28;20218;-84
2021/09/25 09:28:29;;;;;;;9.35;5.63;;;;;23.90;101518.00;;;;5071323;28;20207;-83
2021/09/25 09:30:58;;;;;;;8.90;6.20;;;;;23.90;101515.00;;;;5071823;28;20285;-83
2021/09/25 09:33:30;;;;;;;7.78;6.13;;;;;23.90;101514.00;;;;5067318;28;21194;-84
2021/09/25 09:36:21;;;;;;;8.77;5.60;;;;;23.80;101520.00;;;;5048657;28;20227;-83
2021/09/25 09:38:50;;;;;;;10.35;5.85;;;;;24.00;101522.00;;;;5048232;28;21028;-81
2021/09/25 09:41:24;;;;;;;8.93;6.45;;;;;24.00;101519.00;;;;5054862;28;20223;-81
2021/09/25 09:43:52;;;;;;;9.40;6.22;;;;;24.10;101522.00;;;;5052392;28;20203;-85
2021/09/25 09:46:26;;;;;;;11.38;7.65;;;;;24.10;101526.00;;;;5050592;28;20192;-85
2021/09/25 09:48:55;;;;;;;11.73;7.45;;;;;24.10;101521.00;;;;5052125;28;20208;-84
2021/09/25 09:51:40;;;;;;;12.07;7.68;;;;;24.00;101521.00;;;;5068743;28;20582;-84
2021/09/25 09:54:12;;;;;;;12.68;7.78;;;;;24.10;101522.00;;;;5069684;28;20202;-84
2021/09/25 09:56:41;;;;;;;10.80;7.22;;;;;24.20;101524.00;;;;5068814;28;20202;-84
2021/09/25 09:59:09;;;;;;;9.75;6.47;;;;;24.30;101527.00;;;;5069154;28;20202;-84
2021/09/25 10:01:38;;;;;;;12.38;7.10;;;;;24.30;101521.00;;;;5069029;28;20202;-84
2021/09/25 10:04:06;;;;;;;9.95;7.60;;;;;24.40;101517.00;;;;5069158;28;20195;-84
2021/09/25 10:06:36;;;;;;;15.98;9.27;;;;;24.40;101521.00;;;;5061088;28;20212;-84
2021/09/25 10:09:06;;;;;;;11.90;8.57;;;;;24.50;101527.00;;;;5049852;28;20261;-83
2021/09/25 10:11:34;;;;;;;14.15;8.68;;;;;24.50;101529.00;;;;5049436;28;20607;-83
2021/09/25 10:14:03;;;;;;;13.40;8.90;;;;;24.50;101526.00;;;;5058936;28;20201;-84
2021/09/25 10:16:30;;;;;;;13.50;9.25;;;;;24.60;101520.00;;;;5068283;28;20282;-84
2021/09/25 10:18:58;;;;;;;12.50;9.02;;;;;24.60;101524.00;;;;5068855;28;20214;-84
2021/09/25 10:21:26;;;;;;;14.57;9.80;;;;;24.60;101525.00;;;;5056040;28;20199;-84
2021/09/25 10:24:00;;;;;;;13.52;8.32;;;;;24.60;101529.00;;;;5057495;28;20227;-84
2021/09/25 10:26:28;;;;;;;12.52;8.23;;;;;24.70;101531.00;;;;5054454;28;20262;-84
2021/09/25 10:28:57;;;;;;;14.32;9.65;;;;;24.70;101530.00;;;;5056503;28;20207;-84
2021/09/25 10:31:25;;;;;;;14.18;9.13;;;;;24.80;101526.00;;;;5067354;28;20968;-83
2021/09/25 10:34:10;;;;;;;11.80;8.05;;;;;24.70;101524.00;;;;5069765;28;20294;-83
2021/09/25 10:36:49;;;;;;;16.00;9.00;;;;;24.80;101522.00;;;;5058365;28;20227;-82
2021/09/25 10:39:25;;;;;;;11.55;8.68;;;;;24.80;101515.00;;;;5069821;28;20225;-83
2021/09/25 10:42:11;;;;;;;12.25;8.07;;;;;24.90;101517.00;;;;5060532;28;20242;-83
2021/09/25 10:44:44;;;;;;;13.30;7.95;;;;;24.90;101515.00;;;;5064345;28;20207;-82
2021/09/25 10:47:14;;;;;;;12.80;8.32;;;;;25.00;101512.00;;;;5050145;28;20211;-83
2021/09/25 10:49:50;;;;;;;15.50;8.57;;;;;25.00;101513.00;;;;5053701;28;20204;-83
2021/09/25 10:52:21;;;;;;;12.48;8.60;;;;;25.10;101517.00;;;;5051480;28;20595;-83
2021/09/25 10:55:26;;;;;;;12.07;8.73;;;;;25.10;101518.00;;;;5048936;28;20588;-81
2021/09/25 10:58:14;;;;;;;11.77;7.93;;;;;25.10;101510.00;;;;5048235;28;20211;-83
2021/09/25 11:00:52;;;;;;;16.35;9.00;;;;;25.20;101499.00;;;;5049777;28;20214;-82
2021/09/25 11:03:55;;;;;;;13.60;9.38;;;;;25.20;101500.00;;;;5048563;28;20195;-82
2021/09/25 11:06:27;;;;;;;13.90;9.27;;;;;25.30;101504.00;;;;5048721;28;20197;-83
2021/09/25 11:09:00;;;;;;;12.93;8.25;;;;;25.40;101500.00;;;;5049297;28;20203;-84
2021/09/25 11:11:38;;;;;;;12.50;8.88;;;;;25.30;101505.00;;;;5051307;28;20199;-85
2021/09/25 11:14:24;;;;;;;16.83;9.30;;;;;25.40;101512.00;;;;5050637;28;20203;-84
2021/09/25 11:17:07;;;;;;;10.50;7.85;;;;;25.40;101504.00;;;;5048208;28;20219;-83
2021/09/25 11:19:37;;;;;;;11.20;8.25;;;;;25.50;101502.00;;;;5049149;28;20203;-82
2021/09/25 11:22:07;;;;;;;13.25;8.93;;;;;25.60;101495.00;;;;5049726;28;20200;-82
2021/09/25 11:24:36;;;;;;;12.52;10.18;;;;;25.60;101511.00;;;;5049150;28;20211;-82
2021/09/25 11:27:09;;;;;;;14.95;10.80;;;;;25.60;101500.00;;;;5050597;28;20192;-82
2021/09/25 11:29:49;;;;;;;13.43;9.90;;;;;25.60;101507.00;;;;5062029;28;20187;-80
2021/09/25 11:32:16;;;;;;;14.02;10.20;;;;;25.60;101494.00;;;;5049336;28;20207;-82
2021/09/25 11:34:44;;;;;;;10.45;8.45;;;;;25.60;101499.00;;;;5067078;28;20658;-82
2021/09/25 11:37:11;;;;;;;12.68;9.50;;;;;25.70;101494.00;;;;5052440;28;20200;-82
2021/09/25 11:39:43;;;;;;;13.57;9.13;;;;;25.60;101496.00;;;;5052741;28;20218;-83
2021/09/25 11:42:18;;;;;;;13.85;9.90;;;;;25.60;101491.00;;;;5065712;28;20237;-83
2021/09/25 11:44:52;;;;;;;12.18;9.27;;;;;25.70;101493.00;;;;5062682;28;20574;-84
2021/09/25 11:47:32;;;;;;;14.15;10.52;;;;;25.70;101499.00;;;;5062286;28;20206;-84
2021/09/25 11:50:01;;;;;;;13.57;10.38;;;;;25.70;101485.00;;;;5053209;28;20196;-85
2021/09/25 11:52:29;;;;;;;14.35;9.95;;;;;25.80;101482.00;;;;5051095;28;20215;-81
2021/09/25 11:54:56;;;;;;;12.07;9.30;;;;;25.80;101484.00;;;;5049331;28;20765;-84
2021/09/25 11:57:26;;;;;;;13.07;9.13;;;;;25.80;101487.00;;;;5055099;28;20200;-83
2021/09/25 11:59:54;;;;;;;13.65;8.90;;;;;25.90;101488.00;;;;5061369;28;20190;-85
2021/09/25 12:02:43;;;;;;;12.85;9.38;;;;;25.80;101491.00;;;;5052834;28;20199;-83
2021/09/25 12:05:24;;;;;;;11.98;8.85;;;;;26.00;101487.00;;;;5060645;28;20200;-84
2021/09/25 12:07:52;;;;;;;9.95;8.55;;;;;26.00;101493.00;;;;5050752;28;20226;-84
2021/09/25 12:10:22;;;;;;;13.55;9.77;;;;;26.10;101490.00;;;;5060897;28;20196;-82
2021/09/25 12:12:56;;;;;;;13.60;9.98;;;;;26.00;101486.00;;;;5056360;28;20207;-81
2021/09/25 12:15:26;;;;;;;12.30;9.85;;;;;26.10;101478.00;;;;5053189;28;20266;-84